createdAt,value
2022-08-03T00:04:52.225Z,51.63
2022-08-03T00:09:59.457Z,51.49
2022-08-03T00:15:11.076Z,51.50
2022-08-03T00:20:13.940Z,51.51
2022-08-03T00:25:21.159Z,51.38
2022-08-03T00:30:30.783Z,51.32
2022-08-03T00:35:36.843Z,51.16
2022-08-03T00:40:42.851Z,51.25
2022-08-03T00:45:50.161Z,51.13
2022-08-03T00:50:57.329Z,50.98
2022-08-03T00:56:04.572Z,50.76
2022-08-03T01:01:11.856Z,50.96
2022-08-03T01:06:18.948Z,51.45
2022-08-03T01:11:26.142Z,51.92
2022-08-03T01:16:36.790Z,52.32
2022-08-03T01:21:40.705Z,52.32
2022-08-03T01:26:47.899Z,52.13
2022-08-03T01:32:58.669Z,52.12
2022-08-03T01:37:02.229Z,52.22
2022-08-03T01:42:09.433Z,52.32
2022-08-03T01:47:16.565Z,52.62
2022-08-03T01:52:23.789Z,52.85
2022-08-03T01:57:31.084Z,52.86
2022-08-03T02:02:38.739Z,53.16
2022-08-03T02:07:45.446Z,53.14
2022-08-03T02:12:52.644Z,53.28
2022-08-03T02:17:59.818Z,53.20
2022-08-03T02:23:06.993Z,53.35
2022-08-03T02:28:14.164Z,53.44
2022-08-03T02:33:21.397Z,53.56
2022-08-03T02:38:28.564Z,53.70
2022-08-03T02:44:00.352Z,53.73
2022-08-03T02:48:42.950Z,53.86
2022-08-03T02:53:50.115Z,53.88
2022-08-03T02:58:57.337Z,54.01
2022-08-03T03:04:04.588Z,54.06
2022-08-03T03:09:11.838Z,54.07
2022-08-03T03:14:19.106Z,54.22
2022-08-03T03:19:26.297Z,54.28
2022-08-03T03:24:33.515Z,54.46
2022-08-03T03:29:40.737Z,54.47
2022-08-03T03:34:47.962Z,54.62
2022-08-03T03:39:55.175Z,54.69
2022-08-03T03:45:02.359Z,54.79
2022-08-03T03:50:09.616Z,54.86
2022-08-03T03:55:16.829Z,54.79
2022-08-03T04:00:24.048Z,54.86
2022-08-03T04:05:31.297Z,54.89
2022-08-03T04:10:39.080Z,55.11
2022-08-03T04:15:46.295Z,55.15
2022-08-03T04:20:53.468Z,55.26
2022-08-03T04:26:00.757Z,55.35
2022-08-03T04:31:07.974Z,55.56
2022-08-03T04:36:15.200Z,55.42
2022-08-03T04:41:22.338Z,55.69
2022-08-03T04:46:29.573Z,56.01
2022-08-03T04:51:36.754Z,56.08
2022-08-03T04:56:43.960Z,55.95
2022-08-03T05:01:51.178Z,56.36
2022-08-03T05:06:58.451Z,56.38
2022-08-03T05:12:05.604Z,56.22
2022-08-03T05:17:12.779Z,56.15
2022-08-03T05:22:20.021Z,56.27
2022-08-03T05:27:27.259Z,56.84
2022-08-03T05:32:34.462Z,56.52
2022-08-03T05:37:41.705Z,56.40
2022-08-03T05:42:48.955Z,56.11
2022-08-03T05:47:56.188Z,56.00
2022-08-03T05:53:03.395Z,55.87
2022-08-03T05:58:10.540Z,55.97
2022-08-03T06:03:17.725Z,55.89
2022-08-03T06:08:24.954Z,56.49
2022-08-03T06:13:32.177Z,56.18
2022-08-03T06:18:39.309Z,55.59
2022-08-03T06:23:54.532Z,55.37
2022-08-03T06:28:54.646Z,55.09
2022-08-03T06:34:34.303Z,54.96
2022-08-03T06:39:08.455Z,54.67
2022-08-03T06:44:15.597Z,54.94
2022-08-03T06:49:22.917Z,54.86
2022-08-03T06:54:32.885Z,54.88
2022-08-03T07:00:09.607Z,54.73
2022-08-03T07:04:45.389Z,54.66
2022-08-03T07:09:57.168Z,54.59
2022-08-03T07:15:02.622Z,54.36
2022-08-03T07:20:06.957Z,54.20
2022-08-03T07:25:14.133Z,54.05
2022-08-03T07:30:21.279Z,54.23
2022-08-03T07:35:29.051Z,53.78
2022-08-03T07:40:36.287Z,53.54
2022-08-03T07:45:43.538Z,53.37
2022-08-03T07:50:50.770Z,53.39
2022-08-03T07:55:58.048Z,53.06
2022-08-03T08:01:05.256Z,53.07
2022-08-03T08:06:12.458Z,53.03
2022-08-03T08:11:19.700Z,52.84
2022-08-03T08:16:26.955Z,52.51
2022-08-03T08:21:53.236Z,52.87
2022-08-03T08:26:41.347Z,52.79
2022-08-03T08:31:48.525Z,52.68
2022-08-03T08:36:55.737Z,52.77
2022-08-03T08:42:02.927Z,52.72
2022-08-03T08:47:10.124Z,52.88
2022-08-03T08:52:25.224Z,52.97
2022-08-03T08:57:41.890Z,53.04
2022-08-03T09:02:31.943Z,53.04
2022-08-03T09:07:39.201Z,53.24
2022-08-03T09:12:46.460Z,53.54
2022-08-03T09:17:53.609Z,53.15
2022-08-03T09:23:00.790Z,53.06
2022-08-03T09:28:07.951Z,52.96
2022-08-03T09:33:15.175Z,52.92
2022-08-03T09:38:22.347Z,52.77
2022-08-03T09:43:29.530Z,52.86
2022-08-03T09:48:36.715Z,52.89
2022-08-03T09:53:58.521Z,52.72
2022-08-03T09:58:51.179Z,52.82
2022-08-03T10:04:04.054Z,52.87
2022-08-03T10:09:05.670Z,53.07
2022-08-03T10:14:12.857Z,53.09
2022-08-03T10:19:20.065Z,53.16
2022-08-03T10:24:27.327Z,53.25
2022-08-03T10:29:34.512Z,52.93
2022-08-03T10:34:44.541Z,52.88
2022-08-03T10:39:49.003Z,52.90
2022-08-03T10:44:56.255Z,52.61
2022-08-03T10:50:03.443Z,52.59
2022-08-03T10:55:10.875Z,52.75
2022-08-03T11:00:17.979Z,52.61
2022-08-03T11:05:25.206Z,52.69
2022-08-03T11:10:32.474Z,52.96
2022-08-03T11:15:40.329Z,53.02
2022-08-03T11:20:47.466Z,53.27
2022-08-03T11:25:55.423Z,53.66
2022-08-03T11:31:01.931Z,53.38
2022-08-03T11:36:09.123Z,53.98
2022-08-03T11:41:16.322Z,54.28
2022-08-03T11:46:28.279Z,54.57
2022-08-03T11:51:30.845Z,54.45
2022-08-03T11:56:38.094Z,54.63
2022-08-03T12:01:45.335Z,54.56
2022-08-03T12:06:52.556Z,54.59
2022-08-03T12:12:01.256Z,55.47
2022-08-03T12:17:07.065Z,55.60
2022-08-03T12:22:14.268Z,54.12
2022-08-03T12:27:21.490Z,53.55
2022-08-03T12:32:28.777Z,53.48
2022-08-03T12:37:36.443Z,53.60
2022-08-03T12:42:43.241Z,53.32
2022-08-03T12:47:50.534Z,52.86
2022-08-03T12:52:57.776Z,52.83
2022-08-03T12:58:04.985Z,52.92
2022-08-03T13:03:39.796Z,53.53
2022-08-03T13:08:19.368Z,53.53
2022-08-03T13:13:26.667Z,52.79
2022-08-03T13:18:33.908Z,52.86
2022-08-03T13:23:41.103Z,52.75
2022-08-03T13:28:48.332Z,52.55
2022-08-03T13:33:55.769Z,52.68
2022-08-03T13:39:03.097Z,52.25
2022-08-03T13:44:28.307Z,52.35
2022-08-03T13:49:17.462Z,52.25
2022-08-03T13:54:24.712Z,52.16
2022-08-03T13:59:31.902Z,52.08
2022-08-03T14:04:39.087Z,52.06
2022-08-03T14:09:46.444Z,52.09
2022-08-03T14:14:56.970Z,52.03
2022-08-03T14:20:01.008Z,51.99
2022-08-03T14:25:09.787Z,51.99
2022-08-03T14:30:15.315Z,52.08
2022-08-03T14:35:22.499Z,51.93
2022-08-03T14:40:29.713Z,51.83
2022-08-03T14:45:36.971Z,51.99
2022-08-03T14:50:50.165Z,51.89
2022-08-03T14:55:52.031Z,51.89
2022-08-03T15:00:58.588Z,51.94
2022-08-03T15:06:05.840Z,51.69
2022-08-03T15:11:13.012Z,51.42
2022-08-03T15:16:20.220Z,51.32
2022-08-03T15:21:46.559Z,51.02
2022-08-03T15:26:39.270Z,50.92
2022-08-03T15:31:41.808Z,51.03
2022-08-03T15:36:49.052Z,50.95
2022-08-03T15:41:56.211Z,51.05
2022-08-03T15:47:03.592Z,51.03
2022-08-03T15:52:10.938Z,51.10
2022-08-03T15:57:18.690Z,51.17
2022-08-03T16:02:25.394Z,51.13
2022-08-03T16:07:32.589Z,51.25
2022-08-03T16:12:40.134Z,51.13
2022-08-03T16:17:47.330Z,51.14
2022-08-03T16:22:54.700Z,50.97
2022-08-03T16:28:07.924Z,50.98
2022-08-03T16:33:09.105Z,50.63
2022-08-03T16:38:19.139Z,50.63
2022-08-03T16:43:23.867Z,50.01
2022-08-03T16:48:31.103Z,49.68
2022-08-03T16:54:05.594Z,49.55
2022-08-03T16:58:46.846Z,49.58
2022-08-03T17:04:01.317Z,49.62
2022-08-03T17:09:01.717Z,49.61
2022-08-03T17:14:09.889Z,49.52
2022-08-03T17:19:16.153Z,49.47
2022-08-03T17:24:23.340Z,49.48
2022-08-03T17:29:30.648Z,49.53
2022-08-03T17:34:37.870Z,49.48
2022-08-03T17:40:00.301Z,49.53
2022-08-03T17:44:52.272Z,49.60
2022-08-03T17:49:59.423Z,49.67
2022-08-03T17:55:57.137Z,49.77
2022-08-03T18:00:13.842Z,49.85
2022-08-03T18:05:21.976Z,49.94
2022-08-03T18:10:28.378Z,50.02
2022-08-03T18:15:35.595Z,50.08
2022-08-03T18:20:42.863Z,50.14
2022-08-03T18:25:56.128Z,50.19
2022-08-03T18:30:57.863Z,50.19
2022-08-03T18:36:05.115Z,50.18
2022-08-03T18:41:17.129Z,50.10
2022-08-03T18:46:19.631Z,48.96
2022-08-03T18:51:33.928Z,50.04
2022-08-03T18:56:34.232Z,50.16
2022-08-03T19:01:57.449Z,50.29
2022-08-03T19:06:49.272Z,50.46
2022-08-03T19:12:12.553Z,50.84
2022-08-03T19:17:04.409Z,50.87
2022-08-03T19:22:12.021Z,52.07
2022-08-03T19:27:19.420Z,52.07
2022-08-03T19:32:27.811Z,52.37
2022-08-03T19:37:39.754Z,51.80
2022-08-03T19:42:42.885Z,51.54
2022-08-03T19:47:50.232Z,51.46
2022-08-03T19:52:57.505Z,51.67
2022-08-03T19:58:05.010Z,51.86
2022-08-03T20:03:21.872Z,51.91
2022-08-03T20:08:20.027Z,51.98
2022-08-03T20:13:28.311Z,51.87
2022-08-03T20:18:39.233Z,52.06
2022-08-03T20:24:01.931Z,52.01
2022-08-03T20:28:51.178Z,51.69
2022-08-03T20:33:57.430Z,51.59
2022-08-03T20:39:07.497Z,51.06
2022-08-03T20:44:11.809Z,50.72
2022-08-03T20:49:19.085Z,50.74
2022-08-03T20:54:31.326Z,50.98
2022-08-03T20:59:47.333Z,51.16
2022-08-03T21:04:40.714Z,51.20
2022-08-03T21:09:49.711Z,51.19
2022-08-03T21:14:55.200Z,51.23
2022-08-03T21:20:02.479Z,51.32
2022-08-03T21:25:09.802Z,51.33
2022-08-03T21:30:16.978Z,51.50
2022-08-03T21:35:24.230Z,51.48
2022-08-03T21:40:31.454Z,51.76
2022-08-03T21:45:40.394Z,51.90
2022-08-03T21:50:45.886Z,51.96
2022-08-03T21:55:53.210Z,51.98
2022-08-03T22:01:00.467Z,52.00
2022-08-03T22:06:07.705Z,52.14
2022-08-03T22:11:14.993Z,52.21
2022-08-03T22:16:22.123Z,52.25
2022-08-03T22:21:36.298Z,52.29
2022-08-03T22:26:36.607Z,52.21
2022-08-03T22:31:58.221Z,52.12
2022-08-03T22:36:51.070Z,52.16
2022-08-03T22:41:58.237Z,51.83
2022-08-03T22:47:05.511Z,51.29
2022-08-03T22:52:12.712Z,51.13
2022-08-03T22:57:20.330Z,51.03
2022-08-03T23:02:27.134Z,51.07
2022-08-03T23:07:34.397Z,51.02
2022-08-03T23:12:41.622Z,50.92
2022-08-03T23:17:57.988Z,50.99
2022-08-03T23:22:56.296Z,50.97
2022-08-03T23:28:05.500Z,50.93
2022-08-03T23:33:10.747Z,50.78
2022-08-03T23:38:21.943Z,50.79
2022-08-03T23:43:45.161Z,50.81
2022-08-03T23:48:32.459Z,50.96
2022-08-03T23:53:39.639Z,51.00
2022-08-03T23:58:46.809Z,50.92
